Terminal Aerodrome Forecast
Issued by NWS

Home | Current Version | Previous Version | Text Only | Print | Product List | Glossary On
Versions: 1 2 3 4 5 6 7 8 9 10 11 12 13 14 15 16 17
416
FTUS41 KPHI 212348
TAFMIV
TAF
KMIV 212348Z 2200/2224 19004KT P6SM BKN200
     FM220400 19005KT P6SM VCSH BKN100
     FM220600 19004KT P6SM -RA SCT030 OVC060
      TEMPO 2206/2208 5SM -RA OVC030
     FM220800 VRB03KT 5SM -RA BKN020 OVC060
     FM221000 VRB03KT 4SM RA OVC010
     FM221300 27005KT P6SM OVC010
     FM221400 28010KT P6SM SCT025 BKN060
     FM221600 30012G22KT P6SM BKN120=

USA.gov is the U.S. government's official web portal to all federal, state and local government web resources and services.